createdAt,value
2022-12-09T00:00:09.458Z,33.10
2022-12-09T00:02:59.597Z,33.13
2022-12-09T00:05:28.656Z,31.00
2022-12-09T00:07:58.508Z,33.67
2022-12-09T00:10:27.276Z,35.27
2022-12-09T00:12:56.788Z,31.70
2022-12-09T00:15:25.829Z,29.20
2022-12-09T00:17:54.430Z,35.23
2022-12-09T00:20:23.230Z,33.50
2022-12-09T00:22:52.286Z,34.27
2022-12-09T00:25:22.171Z,36.13
2022-12-09T00:27:50.541Z,37.03
2022-12-09T00:30:19.337Z,28.80
2022-12-09T00:32:48.070Z,30.97
2022-12-09T00:35:16.937Z,31.93
2022-12-09T00:37:45.251Z,34.40
2022-12-09T00:40:15.176Z,33.03
2022-12-09T00:42:44.919Z,31.50
2022-12-09T00:45:13.497Z,35.40
2022-12-09T00:47:42.379Z,31.97
2022-12-09T00:50:11.933Z,36.57
2022-12-09T00:52:40.217Z,31.90
2022-12-09T00:55:10.051Z,30.00
2022-12-09T00:57:39.949Z,33.17
2022-12-09T01:00:12.030Z,34.97
2022-12-09T01:02:40.864Z,33.53
2022-12-09T01:05:10.196Z,35.43
2022-12-09T01:07:39.037Z,32.20
2022-12-09T01:10:09.396Z,34.63
2022-12-09T01:12:39.098Z,28.77
2022-12-09T01:15:10.839Z,33.93
2022-12-09T01:17:41.501Z,32.80
2022-12-09T01:20:11.802Z,30.47
2022-12-09T01:22:40.787Z,30.80
2022-12-09T01:25:10.140Z,32.43
2022-12-09T01:27:38.638Z,33.57
2022-12-09T01:30:12.190Z,37.93
2022-12-09T01:32:41.006Z,35.90
2022-12-09T01:35:10.484Z,32.17
2022-12-09T01:37:39.524Z,37.17
2022-12-09T01:40:15.524Z,36.23
2022-12-09T01:42:44.117Z,40.23
2022-12-09T01:45:40.979Z,39.20
2022-12-09T01:48:14.240Z,38.30
2022-12-09T01:50:51.575Z,32.00
2022-12-09T01:53:22.697Z,35.63
2022-12-09T01:55:51.766Z,32.77
2022-12-09T01:58:20.838Z,35.13
2022-12-09T02:00:51.045Z,34.00
2022-12-09T02:03:22.491Z,33.90
2022-12-09T02:05:51.659Z,32.33
2022-12-09T02:08:21.453Z,33.67
2022-12-09T02:11:03.762Z,37.63
2022-12-09T02:13:38.737Z,35.67
2022-12-09T02:16:14.293Z,35.43
2022-12-09T02:18:49.646Z,34.07
2022-12-09T02:21:26.641Z,32.57
2022-12-09T02:24:01.836Z,33.83
2022-12-09T02:26:40.808Z,35.40
2022-12-09T02:29:40.285Z,37.63
2022-12-09T02:32:47.071Z,33.77
2022-12-09T02:35:24.494Z,35.73
2022-12-09T02:38:00.126Z,37.90
2022-12-09T02:40:33.057Z,36.87
2022-12-09T02:43:06.707Z,35.27
2022-12-09T02:45:38.811Z,37.00
2022-12-09T02:48:10.275Z,41.47
2022-12-09T02:50:43.964Z,42.63
2022-12-09T02:53:15.833Z,37.47
2022-12-09T02:55:48.130Z,37.17
2022-12-09T02:58:17.305Z,43.07
2022-12-09T03:00:46.032Z,40.50
2022-12-09T03:03:19.126Z,38.70
2022-12-09T03:05:57.652Z,38.40
2022-12-09T03:08:35.587Z,47.23
2022-12-09T03:11:07.469Z,36.03
2022-12-09T03:13:44.408Z,40.07
2022-12-09T03:16:19.177Z,35.13
2022-12-09T03:18:52.784Z,35.40
2022-12-09T03:21:26.190Z,34.47
2022-12-09T03:23:57.906Z,42.40
2022-12-09T03:26:29.395Z,40.40
2022-12-09T03:29:00.154Z,37.30
2022-12-09T03:31:31.869Z,40.23
2022-12-09T03:34:05.241Z,41.50
2022-12-09T03:36:37.906Z,41.90
2022-12-09T03:39:09.889Z,36.83
2022-12-09T03:41:39.797Z,35.83
2022-12-09T03:44:12.610Z,35.17
2022-12-09T03:46:41.310Z,36.87
2022-12-09T03:49:10.993Z,40.00
2022-12-09T03:51:46.327Z,35.83
2022-12-09T03:54:20.267Z,42.27
2022-12-09T03:56:53.234Z,33.00
2022-12-09T03:59:23.865Z,35.67
2022-12-09T04:01:53.815Z,36.27
2022-12-09T04:04:22.897Z,39.37
2022-12-09T04:06:55.199Z,37.50
2022-12-09T04:09:24.218Z,39.47
2022-12-09T04:11:53.071Z,37.77
2022-12-09T04:14:21.786Z,39.23
2022-12-09T04:16:50.240Z,39.10
2022-12-09T04:19:18.972Z,42.77
2022-12-09T04:21:47.743Z,37.47
2022-12-09T04:24:17.998Z,37.93
2022-12-09T04:26:46.817Z,35.87
2022-12-09T04:29:15.565Z,37.63
2022-12-09T04:31:44.014Z,38.03
2022-12-09T04:34:14.910Z,36.70
2022-12-09T04:36:43.277Z,38.27
2022-12-09T04:39:11.955Z,40.03
2022-12-09T04:41:42.029Z,43.27
2022-12-09T04:44:10.796Z,33.30
2022-12-09T04:46:39.312Z,35.83
2022-12-09T04:49:08.202Z,38.70
2022-12-09T04:51:40.001Z,42.23
2022-12-09T04:54:12.365Z,36.17
2022-12-09T04:56:45.624Z,37.07
2022-12-09T04:59:15.622Z,40.60
2022-12-09T05:01:44.382Z,37.37
2022-12-09T05:04:13.266Z,40.63
2022-12-09T05:06:42.495Z,42.83
2022-12-09T05:09:13.689Z,45.23
2022-12-09T05:11:43.878Z,41.80
2022-12-09T05:14:12.518Z,43.93
2022-12-09T05:16:41.367Z,42.20
2022-12-09T05:19:11.205Z,38.50
2022-12-09T05:21:44.108Z,42.67
2022-12-09T05:24:13.083Z,36.83
2022-12-09T05:26:42.951Z,43.17
2022-12-09T05:29:11.877Z,40.23
2022-12-09T05:31:41.156Z,43.07
2022-12-09T05:34:10.278Z,42.20
2022-12-09T05:36:38.791Z,50.23
2022-12-09T05:39:07.884Z,45.63
2022-12-09T05:41:36.660Z,42.47
2022-12-09T05:44:07.044Z,44.37
2022-12-09T05:46:36.034Z,40.27
2022-12-09T05:49:05.103Z,44.33
2022-12-09T05:51:34.586Z,45.90
2022-12-09T05:54:04.729Z,52.47
2022-12-09T05:56:34.502Z,44.03
2022-12-09T05:59:03.390Z,45.13
2022-12-09T06:01:33.637Z,42.03
2022-12-09T06:04:02.609Z,42.47
2022-12-09T06:06:32.077Z,46.30
2022-12-09T06:09:02.805Z,46.13
2022-12-09T06:11:32.609Z,37.50
2022-12-09T06:14:02.145Z,51.57
2022-12-09T06:16:30.811Z,44.73
2022-12-09T06:19:01.349Z,50.83
2022-12-09T06:21:29.997Z,38.93
2022-12-09T06:23:58.687Z,47.07
2022-12-09T06:26:29.901Z,46.57
2022-12-09T06:28:59.723Z,50.47
2022-12-09T06:31:29.442Z,50.57
2022-12-09T06:33:59.765Z,48.80
2022-12-09T06:36:32.103Z,48.97
2022-12-09T06:39:09.613Z,46.70
2022-12-09T06:41:41.403Z,46.80
2022-12-09T06:44:15.835Z,46.30
2022-12-09T06:46:50.367Z,46.13
2022-12-09T06:49:19.283Z,48.47
2022-12-09T06:51:49.200Z,44.60
2022-12-09T06:54:18.055Z,47.73
2022-12-09T06:56:46.561Z,53.13
2022-12-09T06:59:15.574Z,40.43
2022-12-09T07:01:44.911Z,42.27
2022-12-09T07:04:15.828Z,48.63
2022-12-09T07:06:46.096Z,44.77
2022-12-09T07:09:18.055Z,44.63
2022-12-09T07:11:48.147Z,46.87
2022-12-09T07:14:18.365Z,46.13
2022-12-09T07:16:48.010Z,43.13
2022-12-09T07:19:19.004Z,48.90
2022-12-09T07:21:47.901Z,43.33
2022-12-09T07:24:19.774Z,42.87
2022-12-09T07:26:49.352Z,46.90
2022-12-09T07:29:18.761Z,41.07
2022-12-09T07:31:48.087Z,37.53
2022-12-09T07:34:17.828Z,44.73
2022-12-09T07:36:46.682Z,41.77
2022-12-09T07:39:19.320Z,42.27
2022-12-09T07:41:48.646Z,46.60
2022-12-09T07:44:18.082Z,44.40
2022-12-09T07:46:47.123Z,40.53
2022-12-09T07:49:16.701Z,44.43
2022-12-09T07:51:45.877Z,47.73
2022-12-09T07:54:16.334Z,35.40
2022-12-09T07:56:47.039Z,48.60
2022-12-09T07:59:17.743Z,48.70
2022-12-09T08:01:46.680Z,45.93
2022-12-09T08:04:15.548Z,46.77
2022-12-09T08:06:44.724Z,45.57
2022-12-09T08:09:15.723Z,47.80
2022-12-09T08:11:46.212Z,48.80
2022-12-09T08:14:15.764Z,48.43
2022-12-09T08:16:44.741Z,47.93
2022-12-09T08:19:14.565Z,48.10
2022-12-09T08:21:44.458Z,47.00
2022-12-09T08:24:15.269Z,45.03
2022-12-09T08:26:45.232Z,49.27
2022-12-09T08:29:15.302Z,46.17
2022-12-09T08:31:44.637Z,54.07
2022-12-09T08:34:14.577Z,50.17
2022-12-09T08:36:44.446Z,52.47
2022-12-09T08:39:14.756Z,49.40
2022-12-09T08:41:46.098Z,43.97
2022-12-09T08:44:16.561Z,52.47
2022-12-09T08:46:47.317Z,46.97
2022-12-09T08:49:18.898Z,47.40
2022-12-09T08:51:49.200Z,57.37
2022-12-09T08:54:18.459Z,50.33
2022-12-09T08:56:50.052Z,49.33
2022-12-09T08:59:20.126Z,50.83
2022-12-09T09:01:49.482Z,51.77
2022-12-09T09:04:20.812Z,49.80
2022-12-09T09:06:51.636Z,48.23
2022-12-09T09:09:21.539Z,49.57
2022-12-09T09:11:52.000Z,52.37
2022-12-09T09:14:20.992Z,51.53
2022-12-09T09:16:49.917Z,52.60
2022-12-09T09:19:20.864Z,48.87
2022-12-09T09:21:50.197Z,52.43
2022-12-09T09:24:22.163Z,53.60
2022-12-09T09:26:53.966Z,54.20
2022-12-09T09:29:24.786Z,49.40
2022-12-09T09:31:55.224Z,51.53
2022-12-09T09:34:26.092Z,55.23
2022-12-09T09:36:55.040Z,55.57
2022-12-09T09:39:24.177Z,52.57
2022-12-09T09:41:56.440Z,47.03
2022-12-09T09:44:28.889Z,52.90
2022-12-09T09:46:58.665Z,47.73
2022-12-09T09:49:36.935Z,53.63
2022-12-09T09:52:10.900Z,52.13
2022-12-09T09:54:39.664Z,51.23
2022-12-09T09:57:15.685Z,51.03
2022-12-09T10:00:09.257Z,55.43
2022-12-09T10:02:59.702Z,50.43
2022-12-09T10:05:32.610Z,46.13
2022-12-09T10:08:18.886Z,54.27
2022-12-09T10:11:00.844Z,61.23
2022-12-09T10:13:45.115Z,55.97
2022-12-09T10:16:17.962Z,55.60
2022-12-09T10:19:04.218Z,55.27
2022-12-09T10:21:41.473Z,52.63
2022-12-09T10:24:23.184Z,55.30
2022-12-09T10:27:01.400Z,48.57
2022-12-09T10:29:49.926Z,53.87
2022-12-09T10:32:21.428Z,48.03
2022-12-09T10:34:50.528Z,54.47
2022-12-09T10:37:26.766Z,53.53
2022-12-09T10:40:02.246Z,53.33
2022-12-09T10:42:53.098Z,54.90
2022-12-09T10:45:24.601Z,54.97
2022-12-09T10:47:54.088Z,52.80
2022-12-09T10:50:31.642Z,48.33
2022-12-09T10:53:06.872Z,54.40
2022-12-09T10:55:38.275Z,51.50
2022-12-09T10:58:19.012Z,49.70
2022-12-09T11:01:02.943Z,52.97
2022-12-09T11:03:35.339Z,59.50
2022-12-09T11:06:23.028Z,54.17
2022-12-09T11:08:58.279Z,61.27
2022-12-09T11:11:42.852Z,49.97
2022-12-09T11:14:26.397Z,54.10
2022-12-09T11:16:59.659Z,51.30
2022-12-09T11:19:34.119Z,50.53
2022-12-09T11:22:28.070Z,56.23
2022-12-09T11:25:06.967Z,51.07
2022-12-09T11:27:36.194Z,56.93
2022-12-09T11:30:14.301Z,55.63
2022-12-09T11:32:59.825Z,46.50
2022-12-09T11:35:37.551Z,52.77
2022-12-09T11:38:19.127Z,57.50
2022-12-09T11:41:06.229Z,57.97
2022-12-09T11:43:38.898Z,56.30
2022-12-09T11:46:18.905Z,54.10
2022-12-09T11:48:57.389Z,53.20
2022-12-09T11:51:30.372Z,50.20
2022-12-09T11:54:03.760Z,48.90
2022-12-09T11:56:34.733Z,49.20
2022-12-09T11:59:07.156Z,45.77
2022-12-09T12:01:48.039Z,48.80
2022-12-09T12:04:21.357Z,50.73
2022-12-09T12:06:52.763Z,43.77
2022-12-09T12:09:25.622Z,48.43
2022-12-09T12:12:04.263Z,44.40
2022-12-09T12:14:33.615Z,42.30
2022-12-09T12:17:10.459Z,45.10
2022-12-09T12:19:42.680Z,40.50
2022-12-09T12:22:54.870Z,40.70
2022-12-09T12:25:49.753Z,39.77
2022-12-09T12:28:33.025Z,41.47
2022-12-09T12:31:11.469Z,43.40
2022-12-09T12:34:25.700Z,45.47
2022-12-09T12:36:53.237Z,45.30
2022-12-09T12:39:36.812Z,44.97
2022-12-09T12:42:16.510Z,39.87
2022-12-09T12:45:10.084Z,43.20
2022-12-09T12:47:45.840Z,44.10
2022-12-09T12:50:30.520Z,44.27
2022-12-09T12:53:08.104Z,44.33
2022-12-09T12:55:50.458Z,41.30
2022-12-09T12:58:38.819Z,36.60
2022-12-09T13:01:15.326Z,40.73
2022-12-09T13:03:54.969Z,45.23
2022-12-09T13:06:40.138Z,43.10
2022-12-09T13:09:17.634Z,39.83
2022-12-09T13:12:08.132Z,44.77
2022-12-09T13:14:48.781Z,42.30
2022-12-09T13:17:23.152Z,40.97
2022-12-09T13:19:53.534Z,42.50
2022-12-09T13:22:26.790Z,49.03
2022-12-09T13:25:03.438Z,44.00
2022-12-09T13:27:39.182Z,47.10
2022-12-09T13:30:13.372Z,40.00
2022-12-09T13:33:11.717Z,43.17
2022-12-09T13:35:46.191Z,47.30
2022-12-09T13:38:26.826Z,44.43
2022-12-09T13:40:56.656Z,44.67
2022-12-09T13:43:28.147Z,40.17
2022-12-09T13:45:59.393Z,45.70
2022-12-09T13:48:55.300Z,43.70
2022-12-09T13:51:27.373Z,44.53
2022-12-09T13:54:03.593Z,44.83
2022-12-09T13:56:36.403Z,42.33
2022-12-09T13:59:39.939Z,43.43
2022-12-09T14:02:23.849Z,40.07
2022-12-09T14:05:02.381Z,36.97
2022-12-09T14:07:37.207Z,43.60
2022-12-09T14:10:07.617Z,35.77
2022-12-09T14:13:19.665Z,48.47
2022-12-09T14:15:49.183Z,38.10
2022-12-09T14:18:32.671Z,41.13
2022-12-09T14:21:30.695Z,38.53
2022-12-09T14:24:36.646Z,42.93
2022-12-09T14:27:19.708Z,41.43
2022-12-09T14:29:52.350Z,49.33
2022-12-09T14:32:29.987Z,37.70
2022-12-09T14:35:26.386Z,46.33
2022-12-09T14:38:14.190Z,44.57
2022-12-09T14:40:56.684Z,46.70
2022-12-09T14:43:53.519Z,36.50
2022-12-09T14:46:27.289Z,41.33
2022-12-09T14:48:59.253Z,43.30
2022-12-09T14:51:34.261Z,45.97
2022-12-09T14:54:07.204Z,38.50
2022-12-09T14:56:36.128Z,38.63
2022-12-09T14:59:08.521Z,37.43
2022-12-09T15:01:56.207Z,35.70
2022-12-09T15:04:29.851Z,36.13
2022-12-09T15:07:12.589Z,43.13
2022-12-09T15:09:53.301Z,42.77
2022-12-09T15:12:25.352Z,37.87
2022-12-09T15:14:59.581Z,43.07
2022-12-09T15:17:33.596Z,41.40
2022-12-09T15:20:02.527Z,38.83
2022-12-09T15:22:33.308Z,41.20
2022-12-09T15:25:03.105Z,40.97
2022-12-09T15:27:31.592Z,37.83
2022-12-09T15:30:00.236Z,43.17
2022-12-09T15:32:31.756Z,45.67
2022-12-09T15:35:16.710Z,43.70
2022-12-09T15:37:45.997Z,46.27
2022-12-09T15:40:19.938Z,44.93
2022-12-09T15:42:52.111Z,46.37
2022-12-09T15:45:24.992Z,51.60
2022-12-09T15:47:58.602Z,49.90
2022-12-09T15:50:31.706Z,45.77
2022-12-09T15:53:04.368Z,48.23
2022-12-09T15:55:38.278Z,57.37
2022-12-09T15:58:10.435Z,47.70
2022-12-09T16:00:42.444Z,48.87
2022-12-09T16:03:12.768Z,46.30
2022-12-09T16:05:42.223Z,43.50
2022-12-09T16:08:11.390Z,60.13
2022-12-09T16:10:48.164Z,43.03
2022-12-09T16:13:21.247Z,47.80
2022-12-09T16:15:52.781Z,54.97
2022-12-09T16:18:25.213Z,56.73
2022-12-09T16:21:22.103Z,48.13
2022-12-09T16:23:53.754Z,54.57
2022-12-09T16:26:28.906Z,53.50
2022-12-09T16:28:59.609Z,44.40
2022-12-09T16:31:28.818Z,47.20
2022-12-09T16:33:58.990Z,48.57
2022-12-09T16:36:29.925Z,58.20
2022-12-09T16:39:34.332Z,47.27
2022-12-09T16:42:03.473Z,50.77
2022-12-09T16:44:35.733Z,48.33
2022-12-09T16:47:11.927Z,42.70
2022-12-09T16:49:43.558Z,44.10
2022-12-09T16:52:13.993Z,43.63
2022-12-09T16:54:44.153Z,37.90
2022-12-09T16:57:14.390Z,43.40
2022-12-09T16:59:43.668Z,42.00
2022-12-09T17:02:20.702Z,41.33
2022-12-09T17:04:52.369Z,40.63
2022-12-09T17:07:21.048Z,42.73
2022-12-09T17:09:49.424Z,42.50
2022-12-09T17:12:18.052Z,43.60
2022-12-09T17:14:46.738Z,38.87
2022-12-09T17:17:15.604Z,41.83
2022-12-09T17:19:44.159Z,44.47
2022-12-09T17:22:14.494Z,39.77
2022-12-09T17:24:42.977Z,45.77
2022-12-09T17:27:11.535Z,41.53
2022-12-09T17:29:39.974Z,44.07
2022-12-09T17:32:08.613Z,33.57
2022-12-09T17:34:37.037Z,39.33
2022-12-09T17:37:05.851Z,41.10
2022-12-09T17:39:35.868Z,39.27
2022-12-09T17:42:04.735Z,45.17
2022-12-09T17:44:33.263Z,41.13
2022-12-09T17:47:02.057Z,39.27
2022-12-09T17:49:30.401Z,35.57
2022-12-09T17:51:59.077Z,54.23
2022-12-09T17:54:27.390Z,37.80
2022-12-09T17:56:57.377Z,41.83
2022-12-09T17:59:25.755Z,45.20
2022-12-09T18:01:54.305Z,40.53
2022-12-09T18:04:22.624Z,35.63
2022-12-09T18:06:51.246Z,48.00
2022-12-09T18:09:22.438Z,42.03
2022-12-09T18:11:51.930Z,45.93
2022-12-09T18:14:21.765Z,38.50
2022-12-09T18:16:51.958Z,31.67
2022-12-09T18:19:23.374Z,44.20
2022-12-09T18:21:52.435Z,41.83
2022-12-09T18:24:20.796Z,40.60
2022-12-09T18:26:49.523Z,40.30
2022-12-09T18:29:17.843Z,39.47
2022-12-09T18:31:54.213Z,40.27
2022-12-09T18:34:23.221Z,36.60
2022-12-09T18:36:52.166Z,40.57
2022-12-09T18:39:20.898Z,40.47
2022-12-09T18:41:49.568Z,39.13
2022-12-09T18:44:18.033Z,40.90
2022-12-09T18:46:49.796Z,39.70
2022-12-09T18:49:19.614Z,42.60
2022-12-09T18:51:49.836Z,36.40
2022-12-09T18:54:20.340Z,43.97
2022-12-09T18:56:49.320Z,49.70
2022-12-09T18:59:19.297Z,33.87
2022-12-09T19:01:50.260Z,34.30
2022-12-09T19:04:21.225Z,43.13
2022-12-09T19:06:52.234Z,39.17
2022-12-09T19:09:22.296Z,39.90
2022-12-09T19:11:52.543Z,43.13
2022-12-09T19:14:22.864Z,44.23
2022-12-09T19:16:53.409Z,41.83
2022-12-09T19:19:24.511Z,37.40
2022-12-09T19:21:54.636Z,45.00
2022-12-09T19:24:25.563Z,35.50
2022-12-09T19:26:56.573Z,39.87
2022-12-09T19:29:26.593Z,40.40
2022-12-09T19:31:58.490Z,45.33
2022-12-09T19:34:28.650Z,41.43
2022-12-09T19:37:00.061Z,41.90
2022-12-09T19:39:31.275Z,39.27
2022-12-09T19:42:00.552Z,38.33
2022-12-09T19:45:00.803Z,45.67
2022-12-09T19:47:19.595Z,37.53
2022-12-09T19:49:48.001Z,45.50
2022-12-09T19:52:16.964Z,33.70
2022-12-09T19:54:45.348Z,39.80
2022-12-09T19:57:14.060Z,37.07
2022-12-09T19:59:42.384Z,40.10
2022-12-09T20:02:14.012Z,43.13
2022-12-09T20:04:49.213Z,41.57
2022-12-09T20:07:18.540Z,36.03
2022-12-09T20:09:47.522Z,40.67
2022-12-09T20:12:16.403Z,47.20
2022-12-09T20:14:44.751Z,44.57
2022-12-09T20:17:13.393Z,49.50
2022-12-09T20:19:43.090Z,52.23
2022-12-09T20:22:11.872Z,47.73
2022-12-09T20:24:40.225Z,47.50
2022-12-09T20:27:08.910Z,43.57
2022-12-09T20:29:38.200Z,47.17
2022-12-09T20:32:08.925Z,53.27
2022-12-09T20:34:37.446Z,53.63
2022-12-09T20:37:07.668Z,49.40
2022-12-09T20:39:36.147Z,52.57
2022-12-09T20:42:04.952Z,45.30
2022-12-09T20:44:33.421Z,55.00
2022-12-09T20:47:02.037Z,51.53
2022-12-09T20:49:30.683Z,57.33
2022-12-09T20:51:59.551Z,50.43
2022-12-09T20:54:29.293Z,57.83
2022-12-09T20:56:58.114Z,57.37
2022-12-09T20:59:26.547Z,47.40
2022-12-09T21:01:56.053Z,49.77
2022-12-09T21:04:24.541Z,65.60
2022-12-09T21:06:54.136Z,65.83
2022-12-09T21:09:27.024Z,65.90
2022-12-09T21:11:57.930Z,60.50
2022-12-09T21:14:31.164Z,67.00
2022-12-09T21:17:02.063Z,55.90
2022-12-09T21:19:32.314Z,60.47
2022-12-09T21:22:01.014Z,57.40
2022-12-09T21:24:29.451Z,65.03
2022-12-09T21:27:00.921Z,71.93
2022-12-09T21:29:32.268Z,60.50
2022-12-09T21:32:01.961Z,62.50
2022-12-09T21:34:30.659Z,60.97
2022-12-09T21:36:59.480Z,58.60
2022-12-09T21:39:29.138Z,60.87
2022-12-09T21:41:59.648Z,60.27
2022-12-09T21:44:29.686Z,69.33
2022-12-09T21:46:58.455Z,59.20
2022-12-09T21:49:29.617Z,59.87
2022-12-09T21:51:58.256Z,61.87
2022-12-09T21:54:26.763Z,60.63
2022-12-09T21:56:55.689Z,59.77
2022-12-09T21:59:25.452Z,54.10
2022-12-09T22:01:55.929Z,63.37
2022-12-09T22:04:24.340Z,64.80
2022-12-09T22:06:53.228Z,63.40
2022-12-09T22:09:21.635Z,64.90
2022-12-09T22:11:50.825Z,57.33
2022-12-09T22:14:19.177Z,65.50
2022-12-09T22:16:49.233Z,66.20
2022-12-09T22:19:19.734Z,71.47
2022-12-09T22:21:49.364Z,75.70
2022-12-09T22:24:18.822Z,58.67
2022-12-09T22:26:47.800Z,65.53
2022-12-09T22:29:17.885Z,63.43
2022-12-09T22:31:48.468Z,64.37
2022-12-09T22:34:19.179Z,72.07
2022-12-09T22:36:49.915Z,70.33
2022-12-09T22:39:21.599Z,71.00
2022-12-09T22:41:50.379Z,70.13
2022-12-09T22:44:20.611Z,72.73
2022-12-09T22:46:51.019Z,70.83
2022-12-09T22:49:19.821Z,78.37
2022-12-09T22:51:48.597Z,71.33
2022-12-09T22:54:16.950Z,79.77
2022-12-09T22:56:46.016Z,71.80
2022-12-09T22:59:15.629Z,76.40
2022-12-09T23:01:45.899Z,72.10
2022-12-09T23:04:17.799Z,68.83
2022-12-09T23:06:46.707Z,67.77
2022-12-09T23:09:18.991Z,74.03
2022-12-09T23:11:48.745Z,72.67
2022-12-09T23:14:17.894Z,69.63
2022-12-09T23:16:47.073Z,77.83
2022-12-09T23:19:18.009Z,65.80
2022-12-09T23:21:46.685Z,71.07
2022-12-09T23:24:24.038Z,71.47
2022-12-09T23:26:56.926Z,60.77
2022-12-09T23:29:25.375Z,70.23
2022-12-09T23:31:54.350Z,65.27
2022-12-09T23:34:24.560Z,68.33
2022-12-09T23:36:53.288Z,75.57
2022-12-09T23:39:21.625Z,69.60
2022-12-09T23:41:50.274Z,72.10
2022-12-09T23:44:19.840Z,70.77
2022-12-09T23:46:49.041Z,62.13
2022-12-09T23:49:17.657Z,75.13
2022-12-09T23:51:47.952Z,69.67
2022-12-09T23:54:18.658Z,66.03
2022-12-09T23:56:50.021Z,74.43
2022-12-09T23:59:21.069Z,63.63
